sensor_id;sensor_type;location;lat;lon;timestamp;P1;durP1;ratioP1;P2;durP2;ratioP2
25715;SDS011;13573;50.936;4.328;2022-08-19T00:01:48;36.43;;;27.27;;
25715;SDS011;13573;50.936;4.328;2022-08-19T00:04:17;35.57;;;27.83;;
25715;SDS011;13573;50.936;4.328;2022-08-19T00:06:46;39.77;;;29.03;;
25715;SDS011;13573;50.936;4.328;2022-08-19T00:09:14;37.57;;;28.73;;
25715;SDS011;13573;50.936;4.328;2022-08-19T00:11:44;42.20;;;31.43;;
25715;SDS011;13573;50.936;4.328;2022-08-19T00:14:12;39.40;;;29.80;;
25715;SDS011;13573;50.936;4.328;2022-08-19T00:16:41;43.97;;;33.17;;
25715;SDS011;13573;50.936;4.328;2022-08-19T00:19:09;43.73;;;34.13;;
25715;SDS011;13573;50.936;4.328;2022-08-19T00:21:36;53.60;;;36.20;;
25715;SDS011;13573;50.936;4.328;2022-08-19T00:24:05;46.63;;;34.30;;
25715;SDS011;13573;50.936;4.328;2022-08-19T00:26:35;48.20;;;33.33;;
25715;SDS011;13573;50.936;4.328;2022-08-19T00:29:04;56.77;;;37.57;;
25715;SDS011;13573;50.936;4.328;2022-08-19T00:31:32;61.97;;;38.27;;
25715;SDS011;13573;50.936;4.328;2022-08-19T00:33:59;60.63;;;38.67;;
25715;SDS011;13573;50.936;4.328;2022-08-19T00:36:26;60.87;;;39.33;;
25715;SDS011;13573;50.936;4.328;2022-08-19T00:38:54;64.80;;;39.27;;
25715;SDS011;13573;50.936;4.328;2022-08-19T00:41:21;67.93;;;42.07;;
25715;SDS011;13573;50.936;4.328;2022-08-19T00:44:04;69.60;;;41.70;;
25715;SDS011;13573;50.936;4.328;2022-08-19T00:46:34;75.83;;;44.73;;
25715;SDS011;13573;50.936;4.328;2022-08-19T00:51:35;74.13;;;44.50;;
25715;SDS011;13573;50.936;4.328;2022-08-19T00:54:02;78.90;;;45.80;;
25715;SDS011;13573;50.936;4.328;2022-08-19T00:56:30;79.63;;;48.27;;
25715;SDS011;13573;50.936;4.328;2022-08-19T00:58:57;79.90;;;46.20;;
25715;SDS011;13573;50.936;4.328;2022-08-19T01:01:25;77.67;;;47.13;;
25715;SDS011;13573;50.936;4.328;2022-08-19T01:03:52;92.83;;;50.20;;
25715;SDS011;13573;50.936;4.328;2022-08-19T01:06:19;86.20;;;47.03;;
25715;SDS011;13573;50.936;4.328;2022-08-19T01:08:46;87.93;;;49.37;;
25715;SDS011;13573;50.936;4.328;2022-08-19T01:11:13;82.43;;;47.37;;
25715;SDS011;13573;50.936;4.328;2022-08-19T01:13:40;83.10;;;47.20;;
25715;SDS011;13573;50.936;4.328;2022-08-19T01:16:09;90.47;;;48.73;;
25715;SDS011;13573;50.936;4.328;2022-08-19T01:18:39;85.30;;;47.30;;
25715;SDS011;13573;50.936;4.328;2022-08-19T01:21:10;86.43;;;47.07;;
25715;SDS011;13573;50.936;4.328;2022-08-19T01:23:40;79.17;;;45.17;;
25715;SDS011;13573;50.936;4.328;2022-08-19T01:26:09;80.20;;;45.57;;
25715;SDS011;13573;50.936;4.328;2022-08-19T01:28:41;94.53;;;49.93;;
25715;SDS011;13573;50.936;4.328;2022-08-19T01:31:13;85.00;;;46.23;;
25715;SDS011;13573;50.936;4.328;2022-08-19T01:33:41;83.13;;;46.77;;
25715;SDS011;13573;50.936;4.328;2022-08-19T01:36:11;87.33;;;48.43;;
25715;SDS011;13573;50.936;4.328;2022-08-19T01:38:40;85.40;;;47.27;;
25715;SDS011;13573;50.936;4.328;2022-08-19T01:41:09;78.53;;;44.57;;
25715;SDS011;13573;50.936;4.328;2022-08-19T01:43:37;83.87;;;47.83;;
25715;SDS011;13573;50.936;4.328;2022-08-19T01:46:04;79.07;;;45.93;;
25715;SDS011;13573;50.936;4.328;2022-08-19T01:48:33;76.47;;;45.67;;
25715;SDS011;13573;50.936;4.328;2022-08-19T01:51:02;82.97;;;46.07;;
25715;SDS011;13573;50.936;4.328;2022-08-19T01:53:28;77.60;;;43.83;;
25715;SDS011;13573;50.936;4.328;2022-08-19T01:55:55;78.53;;;45.10;;
25715;SDS011;13573;50.936;4.328;2022-08-19T01:58:22;81.27;;;45.70;;
25715;SDS011;13573;50.936;4.328;2022-08-19T02:00:53;74.00;;;45.13;;
25715;SDS011;13573;50.936;4.328;2022-08-19T02:03:20;79.67;;;43.47;;
25715;SDS011;13573;50.936;4.328;2022-08-19T02:05:46;75.83;;;44.00;;
25715;SDS011;13573;50.936;4.328;2022-08-19T02:08:14;76.93;;;45.30;;
25715;SDS011;13573;50.936;4.328;2022-08-19T02:10:41;78.40;;;42.43;;
25715;SDS011;13573;50.936;4.328;2022-08-19T02:13:10;68.33;;;41.57;;
25715;SDS011;13573;50.936;4.328;2022-08-19T02:15:39;77.63;;;41.70;;
25715;SDS011;13573;50.936;4.328;2022-08-19T02:18:06;72.47;;;42.23;;
25715;SDS011;13573;50.936;4.328;2022-08-19T02:20:34;61.20;;;39.13;;
25715;SDS011;13573;50.936;4.328;2022-08-19T02:23:01;53.80;;;34.90;;
25715;SDS011;13573;50.936;4.328;2022-08-19T02:25:28;55.33;;;34.93;;
25715;SDS011;13573;50.936;4.328;2022-08-19T02:27:54;55.17;;;34.53;;
25715;SDS011;13573;50.936;4.328;2022-08-19T02:30:21;47.13;;;30.80;;
25715;SDS011;13573;50.936;4.328;2022-08-19T02:32:50;48.57;;;31.17;;
25715;SDS011;13573;50.936;4.328;2022-08-19T02:35:18;54.30;;;31.30;;
25715;SDS011;13573;50.936;4.328;2022-08-19T02:37:45;47.80;;;30.33;;
25715;SDS011;13573;50.936;4.328;2022-08-19T02:40:17;47.20;;;31.23;;
25715;SDS011;13573;50.936;4.328;2022-08-19T02:42:44;55.37;;;33.20;;
25715;SDS011;13573;50.936;4.328;2022-08-19T02:45:12;49.07;;;30.67;;
25715;SDS011;13573;50.936;4.328;2022-08-19T02:47:40;47.30;;;30.13;;
25715;SDS011;13573;50.936;4.328;2022-08-19T02:50:07;50.60;;;32.23;;
25715;SDS011;13573;50.936;4.328;2022-08-19T02:52:34;51.53;;;31.60;;
25715;SDS011;13573;50.936;4.328;2022-08-19T02:55:01;51.20;;;31.07;;
25715;SDS011;13573;50.936;4.328;2022-08-19T02:57:29;53.17;;;32.97;;
25715;SDS011;13573;50.936;4.328;2022-08-19T02:59:57;50.70;;;31.77;;
25715;SDS011;13573;50.936;4.328;2022-08-19T03:02:25;49.20;;;30.73;;
25715;SDS011;13573;50.936;4.328;2022-08-19T03:04:51;50.03;;;30.70;;
25715;SDS011;13573;50.936;4.328;2022-08-19T03:07:18;52.30;;;30.80;;
25715;SDS011;13573;50.936;4.328;2022-08-19T03:09:45;48.47;;;28.63;;
25715;SDS011;13573;50.936;4.328;2022-08-19T03:12:11;45.83;;;29.57;;
25715;SDS011;13573;50.936;4.328;2022-08-19T03:14:38;53.93;;;31.13;;
25715;SDS011;13573;50.936;4.328;2022-08-19T03:17:04;48.87;;;29.00;;
25715;SDS011;13573;50.936;4.328;2022-08-19T03:19:33;52.23;;;30.63;;
25715;SDS011;13573;50.936;4.328;2022-08-19T03:22:00;51.43;;;29.80;;
25715;SDS011;13573;50.936;4.328;2022-08-19T03:24:28;52.90;;;30.70;;
25715;SDS011;13573;50.936;4.328;2022-08-19T03:26:56;52.73;;;31.37;;
25715;SDS011;13573;50.936;4.328;2022-08-19T03:29:25;53.20;;;32.07;;
25715;SDS011;13573;50.936;4.328;2022-08-19T03:31:53;45.77;;;30.00;;
25715;SDS011;13573;50.936;4.328;2022-08-19T03:34:23;49.80;;;30.43;;
25715;SDS011;13573;50.936;4.328;2022-08-19T03:36:54;54.63;;;31.80;;
25715;SDS011;13573;50.936;4.328;2022-08-19T03:39:23;55.57;;;32.57;;
25715;SDS011;13573;50.936;4.328;2022-08-19T03:41:53;50.87;;;31.73;;
25715;SDS011;13573;50.936;4.328;2022-08-19T03:44:22;50.87;;;33.37;;
25715;SDS011;13573;50.936;4.328;2022-08-19T03:46:50;48.83;;;30.30;;
25715;SDS011;13573;50.936;4.328;2022-08-19T03:49:18;49.80;;;30.73;;
25715;SDS011;13573;50.936;4.328;2022-08-19T03:51:47;55.17;;;30.47;;
25715;SDS011;13573;50.936;4.328;2022-08-19T03:54:17;54.57;;;32.60;;
25715;SDS011;13573;50.936;4.328;2022-08-19T03:56:48;63.43;;;34.57;;
25715;SDS011;13573;50.936;4.328;2022-08-19T03:59:16;56.70;;;32.33;;
25715;SDS011;13573;50.936;4.328;2022-08-19T04:01:45;53.90;;;31.00;;
25715;SDS011;13573;50.936;4.328;2022-08-19T04:04:12;58.53;;;32.93;;
25715;SDS011;13573;50.936;4.328;2022-08-19T04:06:39;54.33;;;31.47;;
25715;SDS011;13573;50.936;4.328;2022-08-19T04:09:07;58.77;;;31.53;;
25715;SDS011;13573;50.936;4.328;2022-08-19T04:11:39;52.23;;;29.40;;
25715;SDS011;13573;50.936;4.328;2022-08-19T04:14:09;55.07;;;30.67;;
25715;SDS011;13573;50.936;4.328;2022-08-19T04:16:38;53.03;;;29.47;;
25715;SDS011;13573;50.936;4.328;2022-08-19T04:19:05;58.70;;;31.70;;
25715;SDS011;13573;50.936;4.328;2022-08-19T04:21:32;53.93;;;29.87;;
25715;SDS011;13573;50.936;4.328;2022-08-19T04:24:00;53.60;;;30.33;;
25715;SDS011;13573;50.936;4.328;2022-08-19T04:26:28;58.90;;;31.37;;
25715;SDS011;13573;50.936;4.328;2022-08-19T04:28:58;50.67;;;28.37;;
25715;SDS011;13573;50.936;4.328;2022-08-19T04:31:29;54.10;;;28.63;;
25715;SDS011;13573;50.936;4.328;2022-08-19T04:34:00;53.03;;;29.00;;
25715;SDS011;13573;50.936;4.328;2022-08-19T04:36:30;55.07;;;29.10;;
25715;SDS011;13573;50.936;4.328;2022-08-19T04:39:01;55.10;;;28.67;;
25715;SDS011;13573;50.936;4.328;2022-08-19T04:41:30;30.47;;;19.83;;
25715;SDS011;13573;50.936;4.328;2022-08-19T04:44:02;32.37;;;19.43;;
25715;SDS011;13573;50.936;4.328;2022-08-19T04:46:29;24.13;;;15.93;;
25715;SDS011;13573;50.936;4.328;2022-08-19T04:48:58;25.77;;;17.57;;
25715;SDS011;13573;50.936;4.328;2022-08-19T04:51:25;31.87;;;17.57;;
25715;SDS011;13573;50.936;4.328;2022-08-19T04:53:52;22.83;;;15.67;;
25715;SDS011;13573;50.936;4.328;2022-08-19T04:56:19;29.17;;;18.90;;
25715;SDS011;13573;50.936;4.328;2022-08-19T04:58:48;26.97;;;18.80;;
25715;SDS011;13573;50.936;4.328;2022-08-19T05:01:18;25.87;;;15.77;;
25715;SDS011;13573;50.936;4.328;2022-08-19T05:03:48;17.67;;;12.83;;
25715;SDS011;13573;50.936;4.328;2022-08-19T05:06:17;24.40;;;15.60;;
25715;SDS011;13573;50.936;4.328;2022-08-19T05:08:46;29.47;;;18.80;;
25715;SDS011;13573;50.936;4.328;2022-08-19T05:11:15;31.20;;;19.30;;
25715;SDS011;13573;50.936;4.328;2022-08-19T05:13:43;22.40;;;13.10;;
25715;SDS011;13573;50.936;4.328;2022-08-19T05:16:12;20.73;;;14.17;;
25715;SDS011;13573;50.936;4.328;2022-08-19T05:18:39;22.70;;;16.13;;
25715;SDS011;13573;50.936;4.328;2022-08-19T05:21:13;23.63;;;15.07;;
25715;SDS011;13573;50.936;4.328;2022-08-19T05:23:47;21.47;;;12.40;;
25715;SDS011;13573;50.936;4.328;2022-08-19T05:26:15;18.67;;;12.33;;
25715;SDS011;13573;50.936;4.328;2022-08-19T05:28:42;17.17;;;11.23;;
25715;SDS011;13573;50.936;4.328;2022-08-19T05:31:08;20.27;;;13.03;;
25715;SDS011;13573;50.936;4.328;2022-08-19T05:33:36;22.70;;;14.83;;
25715;SDS011;13573;50.936;4.328;2022-08-19T05:36:03;22.70;;;13.10;;
25715;SDS011;13573;50.936;4.328;2022-08-19T05:38:33;18.23;;;11.20;;
25715;SDS011;13573;50.936;4.328;2022-08-19T05:41:08;21.47;;;11.03;;
25715;SDS011;13573;50.936;4.328;2022-08-19T05:43:36;26.13;;;13.17;;
25715;SDS011;13573;50.936;4.328;2022-08-19T05:46:03;18.17;;;11.27;;
25715;SDS011;13573;50.936;4.328;2022-08-19T05:48:32;22.53;;;12.00;;
25715;SDS011;13573;50.936;4.328;2022-08-19T05:51:03;17.33;;;11.03;;
25715;SDS011;13573;50.936;4.328;2022-08-19T05:53:32;23.40;;;13.90;;
25715;SDS011;13573;50.936;4.328;2022-08-19T05:56:05;20.87;;;13.17;;
25715;SDS011;13573;50.936;4.328;2022-08-19T05:58:32;19.70;;;13.23;;
25715;SDS011;13573;50.936;4.328;2022-08-19T06:01:00;26.37;;;14.20;;
25715;SDS011;13573;50.936;4.328;2022-08-19T06:03:30;16.80;;;11.13;;
25715;SDS011;13573;50.936;4.328;2022-08-19T06:05:59;15.57;;;10.13;;
25715;SDS011;13573;50.936;4.328;2022-08-19T06:08:26;20.17;;;12.23;;
25715;SDS011;13573;50.936;4.328;2022-08-19T06:10:53;23.87;;;14.27;;
25715;SDS011;13573;50.936;4.328;2022-08-19T06:13:20;16.87;;;9.77;;
25715;SDS011;13573;50.936;4.328;2022-08-19T06:15:48;19.50;;;10.97;;
25715;SDS011;13573;50.936;4.328;2022-08-19T06:18:15;18.60;;;9.53;;
25715;SDS011;13573;50.936;4.328;2022-08-19T06:20:43;19.63;;;12.87;;
25715;SDS011;13573;50.936;4.328;2022-08-19T06:23:10;22.37;;;12.93;;
25715;SDS011;13573;50.936;4.328;2022-08-19T06:25:36;15.90;;;10.27;;
25715;SDS011;13573;50.936;4.328;2022-08-19T06:28:05;17.03;;;10.23;;
25715;SDS011;13573;50.936;4.328;2022-08-19T06:30:32;18.50;;;11.50;;
25715;SDS011;13573;50.936;4.328;2022-08-19T06:32:58;16.97;;;10.77;;
25715;SDS011;13573;50.936;4.328;2022-08-19T06:35:25;13.93;;;8.70;;
25715;SDS011;13573;50.936;4.328;2022-08-19T06:37:52;19.53;;;11.33;;
25715;SDS011;13573;50.936;4.328;2022-08-19T06:40:22;20.03;;;11.10;;
25715;SDS011;13573;50.936;4.328;2022-08-19T06:42:48;19.30;;;11.03;;
25715;SDS011;13573;50.936;4.328;2022-08-19T06:45:15;20.33;;;12.13;;
25715;SDS011;13573;50.936;4.328;2022-08-19T06:47:43;16.37;;;10.80;;
25715;SDS011;13573;50.936;4.328;2022-08-19T06:50:11;22.50;;;11.20;;
25715;SDS011;13573;50.936;4.328;2022-08-19T06:52:38;18.03;;;11.63;;
25715;SDS011;13573;50.936;4.328;2022-08-19T06:55:04;19.67;;;10.50;;
25715;SDS011;13573;50.936;4.328;2022-08-19T06:57:33;22.97;;;12.00;;
25715;SDS011;13573;50.936;4.328;2022-08-19T07:00:00;19.17;;;9.87;;
25715;SDS011;13573;50.936;4.328;2022-08-19T07:02:30;20.47;;;10.47;;
25715;SDS011;13573;50.936;4.328;2022-08-19T07:04:56;20.50;;;10.20;;
25715;SDS011;13573;50.936;4.328;2022-08-19T07:07:23;16.70;;;10.70;;
25715;SDS011;13573;50.936;4.328;2022-08-19T07:09:51;14.07;;;9.90;;
25715;SDS011;13573;50.936;4.328;2022-08-19T07:12:18;16.77;;;10.80;;
25715;SDS011;13573;50.936;4.328;2022-08-19T07:14:45;14.70;;;8.97;;
25715;SDS011;13573;50.936;4.328;2022-08-19T07:17:12;14.03;;;8.90;;
25715;SDS011;13573;50.936;4.328;2022-08-19T07:19:39;15.60;;;9.10;;
25715;SDS011;13573;50.936;4.328;2022-08-19T07:22:07;18.10;;;10.80;;
25715;SDS011;13573;50.936;4.328;2022-08-19T07:24:35;12.70;;;9.03;;
25715;SDS011;13573;50.936;4.328;2022-08-19T07:27:04;11.03;;;7.67;;
25715;SDS011;13573;50.936;4.328;2022-08-19T07:29:32;14.27;;;7.53;;
25715;SDS011;13573;50.936;4.328;2022-08-19T07:32:00;18.60;;;10.27;;
25715;SDS011;13573;50.936;4.328;2022-08-19T07:34:28;12.00;;;7.67;;
25715;SDS011;13573;50.936;4.328;2022-08-19T07:36:57;14.10;;;7.77;;
25715;SDS011;13573;50.936;4.328;2022-08-19T07:39:26;11.67;;;7.70;;
25715;SDS011;13573;50.936;4.328;2022-08-19T07:41:55;9.37;;;6.57;;
25715;SDS011;13573;50.936;4.328;2022-08-19T07:44:25;11.73;;;6.00;;
25715;SDS011;13573;50.936;4.328;2022-08-19T07:46:52;17.23;;;7.73;;
25715;SDS011;13573;50.936;4.328;2022-08-19T07:49:21;12.80;;;6.93;;
25715;SDS011;13573;50.936;4.328;2022-08-19T07:51:52;15.33;;;6.67;;
25715;SDS011;13573;50.936;4.328;2022-08-19T07:54:24;12.63;;;6.77;;
25715;SDS011;13573;50.936;4.328;2022-08-19T07:56:52;11.00;;;7.10;;
25715;SDS011;13573;50.936;4.328;2022-08-19T07:59:21;10.83;;;5.37;;
25715;SDS011;13573;50.936;4.328;2022-08-19T08:01:49;12.43;;;7.00;;
25715;SDS011;13573;50.936;4.328;2022-08-19T08:04:17;11.30;;;6.47;;
25715;SDS011;13573;50.936;4.328;2022-08-19T08:06:50;9.67;;;5.70;;
25715;SDS011;13573;50.936;4.328;2022-08-19T08:09:26;11.80;;;5.10;;
25715;SDS011;13573;50.936;4.328;2022-08-19T08:11:55;8.33;;;5.50;;
25715;SDS011;13573;50.936;4.328;2022-08-19T08:14:28;10.33;;;5.80;;
25715;SDS011;13573;50.936;4.328;2022-08-19T08:16:58;11.43;;;6.03;;
25715;SDS011;13573;50.936;4.328;2022-08-19T08:19:25;11.23;;;5.90;;
25715;SDS011;13573;50.936;4.328;2022-08-19T08:21:55;12.77;;;5.53;;
25715;SDS011;13573;50.936;4.328;2022-08-19T08:24:25;14.53;;;5.73;;
25715;SDS011;13573;50.936;4.328;2022-08-19T08:26:53;11.90;;;6.03;;
25715;SDS011;13573;50.936;4.328;2022-08-19T08:29:20;9.70;;;6.23;;
25715;SDS011;13573;50.936;4.328;2022-08-19T08:31:47;11.47;;;6.27;;
25715;SDS011;13573;50.936;4.328;2022-08-19T08:34:14;13.03;;;6.43;;
25715;SDS011;13573;50.936;4.328;2022-08-19T08:36:42;12.70;;;6.13;;
25715;SDS011;13573;50.936;4.328;2022-08-19T08:39:12;14.53;;;6.47;;
25715;SDS011;13573;50.936;4.328;2022-08-19T08:41:46;9.30;;;5.60;;
25715;SDS011;13573;50.936;4.328;2022-08-19T08:44:22;10.47;;;5.37;;
25715;SDS011;13573;50.936;4.328;2022-08-19T08:46:53;13.27;;;6.73;;
25715;SDS011;13573;50.936;4.328;2022-08-19T08:49:40;10.87;;;6.33;;
25715;SDS011;13573;50.936;4.328;2022-08-19T08:52:15;11.73;;;6.40;;
25715;SDS011;13573;50.936;4.328;2022-08-19T08:54:46;13.50;;;7.07;;
25715;SDS011;13573;50.936;4.328;2022-08-19T08:57:19;12.00;;;6.23;;
25715;SDS011;13573;50.936;4.328;2022-08-19T08:59:49;10.30;;;6.30;;
25715;SDS011;13573;50.936;4.328;2022-08-19T09:02:18;11.77;;;7.50;;
25715;SDS011;13573;50.936;4.328;2022-08-19T09:04:46;13.80;;;7.23;;
25715;SDS011;13573;50.936;4.328;2022-08-19T09:07:19;14.33;;;7.37;;
25715;SDS011;13573;50.936;4.328;2022-08-19T09:09:49;14.27;;;7.17;;
25715;SDS011;13573;50.936;4.328;2022-08-19T09:12:24;13.23;;;7.97;;
25715;SDS011;13573;50.936;4.328;2022-08-19T09:15:03;11.80;;;7.30;;
25715;SDS011;13573;50.936;4.328;2022-08-19T09:17:33;11.80;;;7.37;;
25715;SDS011;13573;50.936;4.328;2022-08-19T09:20:05;14.03;;;7.13;;
25715;SDS011;13573;50.936;4.328;2022-08-19T09:22:36;12.27;;;7.57;;
25715;SDS011;13573;50.936;4.328;2022-08-19T09:25:04;13.47;;;6.63;;
25715;SDS011;13573;50.936;4.328;2022-08-19T09:27:33;10.70;;;7.13;;
25715;SDS011;13573;50.936;4.328;2022-08-19T09:30:03;11.07;;;6.43;;
25715;SDS011;13573;50.936;4.328;2022-08-19T09:32:30;10.33;;;6.40;;
25715;SDS011;13573;50.936;4.328;2022-08-19T09:34:57;12.97;;;7.10;;
25715;SDS011;13573;50.936;4.328;2022-08-19T09:37:26;9.73;;;6.33;;
25715;SDS011;13573;50.936;4.328;2022-08-19T09:39:53;12.50;;;6.57;;
25715;SDS011;13573;50.936;4.328;2022-08-19T09:42:20;11.53;;;6.47;;
25715;SDS011;13573;50.936;4.328;2022-08-19T09:44:47;13.10;;;6.30;;
25715;SDS011;13573;50.936;4.328;2022-08-19T09:47:14;11.03;;;6.27;;
25715;SDS011;13573;50.936;4.328;2022-08-19T09:49:41;11.33;;;6.47;;
25715;SDS011;13573;50.936;4.328;2022-08-19T09:52:10;10.10;;;5.90;;
25715;SDS011;13573;50.936;4.328;2022-08-19T09:54:37;12.17;;;6.03;;
25715;SDS011;13573;50.936;4.328;2022-08-19T09:57:05;9.87;;;5.43;;
25715;SDS011;13573;50.936;4.328;2022-08-19T09:59:33;12.80;;;5.70;;
25715;SDS011;13573;50.936;4.328;2022-08-19T10:02:00;8.03;;;5.10;;
25715;SDS011;13573;50.936;4.328;2022-08-19T10:04:27;8.50;;;5.10;;
25715;SDS011;13573;50.936;4.328;2022-08-19T10:06:55;8.57;;;4.43;;
25715;SDS011;13573;50.936;4.328;2022-08-19T10:09:22;9.40;;;5.20;;
25715;SDS011;13573;50.936;4.328;2022-08-19T10:11:49;7.80;;;5.00;;
25715;SDS011;13573;50.936;4.328;2022-08-19T10:14:15;8.53;;;4.77;;
25715;SDS011;13573;50.936;4.328;2022-08-19T10:16:43;8.30;;;5.27;;
25715;SDS011;13573;50.936;4.328;2022-08-19T10:19:10;10.40;;;5.57;;
25715;SDS011;13573;50.936;4.328;2022-08-19T10:21:37;8.33;;;5.70;;
25715;SDS011;13573;50.936;4.328;2022-08-19T10:24:05;10.17;;;5.27;;
25715;SDS011;13573;50.936;4.328;2022-08-19T10:26:33;10.40;;;5.60;;
25715;SDS011;13573;50.936;4.328;2022-08-19T10:29:02;8.73;;;5.27;;
25715;SDS011;13573;50.936;4.328;2022-08-19T10:31:31;8.87;;;5.70;;
25715;SDS011;13573;50.936;4.328;2022-08-19T10:33:59;11.53;;;6.20;;
25715;SDS011;13573;50.936;4.328;2022-08-19T10:36:29;8.87;;;6.17;;
25715;SDS011;13573;50.936;4.328;2022-08-19T10:38:58;9.50;;;5.63;;
25715;SDS011;13573;50.936;4.328;2022-08-19T10:41:28;11.00;;;6.87;;
25715;SDS011;13573;50.936;4.328;2022-08-19T10:44:00;10.77;;;6.00;;
25715;SDS011;13573;50.936;4.328;2022-08-19T10:46:30;8.93;;;5.90;;
25715;SDS011;13573;50.936;4.328;2022-08-19T10:49:00;10.07;;;6.30;;
25715;SDS011;13573;50.936;4.328;2022-08-19T10:51:28;11.07;;;5.53;;
25715;SDS011;13573;50.936;4.328;2022-08-19T10:54:01;8.00;;;5.43;;
25715;SDS011;13573;50.936;4.328;2022-08-19T10:56:29;8.53;;;6.17;;
25715;SDS011;13573;50.936;4.328;2022-08-19T10:59:02;16.63;;;5.90;;
25715;SDS011;13573;50.936;4.328;2022-08-19T11:01:31;9.90;;;6.30;;
25715;SDS011;13573;50.936;4.328;2022-08-19T11:04:00;10.07;;;6.07;;
25715;SDS011;13573;50.936;4.328;2022-08-19T11:06:27;13.37;;;6.77;;
25715;SDS011;13573;50.936;4.328;2022-08-19T11:08:55;11.33;;;5.47;;
25715;SDS011;13573;50.936;4.328;2022-08-19T11:11:25;6.07;;;4.77;;
25715;SDS011;13573;50.936;4.328;2022-08-19T11:13:54;7.33;;;4.07;;
25715;SDS011;13573;50.936;4.328;2022-08-19T11:16:22;5.90;;;3.98;;
25715;SDS011;13573;50.936;4.328;2022-08-19T11:18:54;7.17;;;3.57;;
25715;SDS011;13573;50.936;4.328;2022-08-19T11:21:25;7.67;;;3.30;;
25715;SDS011;13573;50.936;4.328;2022-08-19T11:23:55;5.50;;;3.47;;
25715;SDS011;13573;50.936;4.328;2022-08-19T11:26:28;3.70;;;2.67;;
25715;SDS011;13573;50.936;4.328;2022-08-19T11:28:57;5.53;;;3.37;;
25715;SDS011;13573;50.936;4.328;2022-08-19T11:31:26;6.90;;;3.53;;
25715;SDS011;13573;50.936;4.328;2022-08-19T11:33:57;6.73;;;3.47;;
25715;SDS011;13573;50.936;4.328;2022-08-19T11:36:27;5.47;;;3.53;;
25715;SDS011;13573;50.936;4.328;2022-08-19T11:38:54;7.07;;;4.20;;
25715;SDS011;13573;50.936;4.328;2022-08-19T11:41:21;7.37;;;4.57;;
25715;SDS011;13573;50.936;4.328;2022-08-19T11:43:51;9.50;;;4.97;;
25715;SDS011;13573;50.936;4.328;2022-08-19T11:46:21;8.70;;;5.30;;
25715;SDS011;13573;50.936;4.328;2022-08-19T11:48:49;8.03;;;5.67;;
25715;SDS011;13573;50.936;4.328;2022-08-19T11:51:23;13.10;;;5.67;;
25715;SDS011;13573;50.936;4.328;2022-08-19T11:53:48;7.87;;;5.93;;
25715;SDS011;13573;50.936;4.328;2022-08-19T11:56:16;8.67;;;6.47;;
25715;SDS011;13573;50.936;4.328;2022-08-19T11:58:45;12.50;;;6.77;;
25715;SDS011;13573;50.936;4.328;2022-08-19T12:01:13;11.27;;;8.10;;
25715;SDS011;13573;50.936;4.328;2022-08-19T12:03:43;9.10;;;6.83;;
25715;SDS011;13573;50.936;4.328;2022-08-19T12:06:12;13.20;;;8.10;;
25715;SDS011;13573;50.936;4.328;2022-08-19T12:08:41;13.80;;;7.60;;
25715;SDS011;13573;50.936;4.328;2022-08-19T12:11:10;8.70;;;7.73;;
25715;SDS011;13573;50.936;4.328;2022-08-19T12:13:40;10.20;;;7.70;;
25715;SDS011;13573;50.936;4.328;2022-08-19T12:16:11;12.40;;;7.30;;
25715;SDS011;13573;50.936;4.328;2022-08-19T12:18:40;9.37;;;7.17;;
25715;SDS011;13573;50.936;4.328;2022-08-19T12:21:12;9.83;;;6.83;;
25715;SDS011;13573;50.936;4.328;2022-08-19T12:23:40;8.27;;;6.57;;
25715;SDS011;13573;50.936;4.328;2022-08-19T12:26:09;8.77;;;6.90;;
25715;SDS011;13573;50.936;4.328;2022-08-19T12:28:36;9.87;;;7.30;;
25715;SDS011;13573;50.936;4.328;2022-08-19T12:31:03;12.47;;;6.70;;
25715;SDS011;13573;50.936;4.328;2022-08-19T12:33:32;7.00;;;5.70;;
25715;SDS011;13573;50.936;4.328;2022-08-19T12:36:00;9.63;;;6.10;;
25715;SDS011;13573;50.936;4.328;2022-08-19T12:41:03;7.73;;;4.90;;
25715;SDS011;13573;50.936;4.328;2022-08-19T12:43:33;7.10;;;4.10;;
25715;SDS011;13573;50.936;4.328;2022-08-19T12:46:01;4.80;;;4.10;;
25715;SDS011;13573;50.936;4.328;2022-08-19T12:48:30;6.97;;;4.33;;
25715;SDS011;13573;50.936;4.328;2022-08-19T12:50:57;7.13;;;3.97;;
25715;SDS011;13573;50.936;4.328;2022-08-19T12:53:25;5.53;;;3.60;;
25715;SDS011;13573;50.936;4.328;2022-08-19T12:55:55;4.30;;;3.60;;
25715;SDS011;13573;50.936;4.328;2022-08-19T12:58:23;7.10;;;3.63;;
25715;SDS011;13573;50.936;4.328;2022-08-19T13:00:50;4.67;;;3.27;;
25715;SDS011;13573;50.936;4.328;2022-08-19T13:03:17;2.98;;;2.67;;
25715;SDS011;13573;50.936;4.328;2022-08-19T13:05:44;3.95;;;2.67;;
25715;SDS011;13573;50.936;4.328;2022-08-19T13:08:11;6.37;;;2.98;;
25715;SDS011;13573;50.936;4.328;2022-08-19T13:10:37;5.10;;;2.83;;
25715;SDS011;13573;50.936;4.328;2022-08-19T13:13:05;4.30;;;2.80;;
25715;SDS011;13573;50.936;4.328;2022-08-19T13:15:36;3.30;;;2.60;;
25715;SDS011;13573;50.936;4.328;2022-08-19T13:18:06;7.03;;;2.60;;
25715;SDS011;13573;50.936;4.328;2022-08-19T13:20:37;4.58;;;2.92;;
25715;SDS011;13573;50.936;4.328;2022-08-19T13:23:06;5.05;;;2.85;;
25715;SDS011;13573;50.936;4.328;2022-08-19T13:25:34;4.97;;;2.77;;
25715;SDS011;13573;50.936;4.328;2022-08-19T13:28:02;4.27;;;2.87;;
25715;SDS011;13573;50.936;4.328;2022-08-19T13:30:31;5.23;;;3.10;;
25715;SDS011;13573;50.936;4.328;2022-08-19T13:33:04;2.77;;;2.50;;
25715;SDS011;13573;50.936;4.328;2022-08-19T13:35:38;6.17;;;2.87;;
25715;SDS011;13573;50.936;4.328;2022-08-19T13:38:11;6.10;;;3.23;;
25715;SDS011;13573;50.936;4.328;2022-08-19T13:40:39;4.20;;;2.50;;
25715;SDS011;13573;50.936;4.328;2022-08-19T13:43:07;7.27;;;2.30;;
25715;SDS011;13573;50.936;4.328;2022-08-19T13:45:35;5.72;;;2.12;;
25715;SDS011;13573;50.936;4.328;2022-08-19T13:48:03;4.67;;;1.67;;
25715;SDS011;13573;50.936;4.328;2022-08-19T13:50:35;3.67;;;2.08;;
25715;SDS011;13573;50.936;4.328;2022-08-19T13:53:04;3.08;;;2.27;;
25715;SDS011;13573;50.936;4.328;2022-08-19T13:55:31;2.65;;;1.45;;
25715;SDS011;13573;50.936;4.328;2022-08-19T13:57:59;1.80;;;1.40;;
25715;SDS011;13573;50.936;4.328;2022-08-19T14:00:29;4.80;;;1.90;;
25715;SDS011;13573;50.936;4.328;2022-08-19T14:02:56;3.10;;;1.90;;
25715;SDS011;13573;50.936;4.328;2022-08-19T14:05:25;5.70;;;1.53;;
25715;SDS011;13573;50.936;4.328;2022-08-19T14:07:53;2.23;;;1.60;;
25715;SDS011;13573;50.936;4.328;2022-08-19T14:10:20;6.67;;;2.30;;
25715;SDS011;13573;50.936;4.328;2022-08-19T14:12:48;3.83;;;2.50;;
25715;SDS011;13573;50.936;4.328;2022-08-19T14:15:17;5.53;;;2.50;;
25715;SDS011;13573;50.936;4.328;2022-08-19T14:17:44;13.67;;;3.20;;
25715;SDS011;13573;50.936;4.328;2022-08-19T14:20:14;10.40;;;2.60;;
25715;SDS011;13573;50.936;4.328;2022-08-19T14:22:42;4.27;;;2.40;;
25715;SDS011;13573;50.936;4.328;2022-08-19T14:25:15;4.20;;;2.57;;
25715;SDS011;13573;50.936;4.328;2022-08-19T14:27:40;6.33;;;3.07;;
25715;SDS011;13573;50.936;4.328;2022-08-19T14:30:09;2.47;;;2.20;;
25715;SDS011;13573;50.936;4.328;2022-08-19T14:32:39;5.47;;;2.03;;
25715;SDS011;13573;50.936;4.328;2022-08-19T14:35:09;3.43;;;1.93;;
25715;SDS011;13573;50.936;4.328;2022-08-19T14:37:38;3.63;;;2.27;;
25715;SDS011;13573;50.936;4.328;2022-08-19T14:40:06;4.27;;;2.00;;
25715;SDS011;13573;50.936;4.328;2022-08-19T14:42:34;4.03;;;1.80;;
25715;SDS011;13573;50.936;4.328;2022-08-19T14:45:01;3.10;;;1.73;;